sensor_id;sensor_type;location;lat;lon;timestamp;P1;durP1;ratioP1;P2;durP2;ratioP2
17598;SDS011;8918;52.092;5.232;2023-12-14T00:00:28;16.30;;;10.90;;
17598;SDS011;8918;52.092;5.232;2023-12-14T00:02:53;17.00;;;10.90;;
17598;SDS011;8918;52.092;5.232;2023-12-14T00:05:19;16.80;;;10.70;;
17598;SDS011;8918;52.092;5.232;2023-12-14T00:07:45;18.20;;;11.33;;
17598;SDS011;8918;52.092;5.232;2023-12-14T00:10:10;17.93;;;10.97;;
17598;SDS011;8918;52.092;5.232;2023-12-14T00:12:37;15.87;;;10.57;;
17598;SDS011;8918;52.092;5.232;2023-12-14T00:15:03;16.30;;;10.93;;
17598;SDS011;8918;52.092;5.232;2023-12-14T00:17:29;14.07;;;9.90;;
17598;SDS011;8918;52.092;5.232;2023-12-14T00:19:55;15.57;;;10.10;;
17598;SDS011;8918;52.092;5.232;2023-12-14T00:22:21;14.90;;;9.67;;
17598;SDS011;8918;52.092;5.232;2023-12-14T00:24:46;16.27;;;10.43;;
17598;SDS011;8918;52.092;5.232;2023-12-14T00:27:12;16.03;;;10.10;;
17598;SDS011;8918;52.092;5.232;2023-12-14T00:29:37;15.13;;;10.30;;
17598;SDS011;8918;52.092;5.232;2023-12-14T00:32:03;13.50;;;9.60;;
17598;SDS011;8918;52.092;5.232;2023-12-14T00:34:29;14.37;;;9.43;;
17598;SDS011;8918;52.092;5.232;2023-12-14T00:36:55;13.07;;;9.30;;
17598;SDS011;8918;52.092;5.232;2023-12-14T00:39:21;16.37;;;10.60;;
17598;SDS011;8918;52.092;5.232;2023-12-14T00:41:46;15.07;;;9.70;;
17598;SDS011;8918;52.092;5.232;2023-12-14T00:44:12;15.10;;;9.27;;
17598;SDS011;8918;52.092;5.232;2023-12-14T00:46:37;13.10;;;9.40;;
17598;SDS011;8918;52.092;5.232;2023-12-14T00:49:03;13.60;;;9.13;;
17598;SDS011;8918;52.092;5.232;2023-12-14T00:51:28;14.47;;;10.30;;
17598;SDS011;8918;52.092;5.232;2023-12-14T00:53:54;13.67;;;8.83;;
17598;SDS011;8918;52.092;5.232;2023-12-14T00:56:20;13.13;;;9.53;;
17598;SDS011;8918;52.092;5.232;2023-12-14T00:58:45;14.27;;;9.83;;
17598;SDS011;8918;52.092;5.232;2023-12-14T01:01:11;12.73;;;9.47;;
17598;SDS011;8918;52.092;5.232;2023-12-14T01:03:36;14.13;;;9.80;;
17598;SDS011;8918;52.092;5.232;2023-12-14T01:06:02;14.53;;;9.20;;
17598;SDS011;8918;52.092;5.232;2023-12-14T01:08:28;14.10;;;10.07;;
17598;SDS011;8918;52.092;5.232;2023-12-14T01:10:53;13.50;;;9.80;;
17598;SDS011;8918;52.092;5.232;2023-12-14T01:13:19;14.33;;;10.10;;
17598;SDS011;8918;52.092;5.232;2023-12-14T01:15:44;17.97;;;10.23;;
17598;SDS011;8918;52.092;5.232;2023-12-14T01:18:10;14.47;;;10.30;;
17598;SDS011;8918;52.092;5.232;2023-12-14T01:20:36;14.33;;;10.03;;
17598;SDS011;8918;52.092;5.232;2023-12-14T01:23:01;13.77;;;10.00;;
17598;SDS011;8918;52.092;5.232;2023-12-14T01:25:27;14.73;;;10.13;;
17598;SDS011;8918;52.092;5.232;2023-12-14T01:27:59;13.83;;;9.53;;
17598;SDS011;8918;52.092;5.232;2023-12-14T01:30:25;13.23;;;9.77;;
17598;SDS011;8918;52.092;5.232;2023-12-14T01:32:50;14.40;;;10.13;;
17598;SDS011;8918;52.092;5.232;2023-12-14T01:35:16;13.80;;;9.93;;
17598;SDS011;8918;52.092;5.232;2023-12-14T01:37:41;14.13;;;10.00;;
17598;SDS011;8918;52.092;5.232;2023-12-14T01:40:07;17.33;;;9.93;;
17598;SDS011;8918;52.092;5.232;2023-12-14T01:42:33;13.73;;;10.23;;
17598;SDS011;8918;52.092;5.232;2023-12-14T01:44:59;14.90;;;9.70;;
17598;SDS011;8918;52.092;5.232;2023-12-14T01:47:24;15.60;;;9.63;;
17598;SDS011;8918;52.092;5.232;2023-12-14T01:49:50;14.33;;;9.93;;
17598;SDS011;8918;52.092;5.232;2023-12-14T01:52:16;15.00;;;10.03;;
17598;SDS011;8918;52.092;5.232;2023-12-14T01:54:41;15.43;;;10.07;;
17598;SDS011;8918;52.092;5.232;2023-12-14T01:57:07;13.87;;;9.67;;
17598;SDS011;8918;52.092;5.232;2023-12-14T01:59:33;13.30;;;9.73;;
17598;SDS011;8918;52.092;5.232;2023-12-14T02:01:58;13.70;;;10.00;;
17598;SDS011;8918;52.092;5.232;2023-12-14T02:04:26;13.77;;;9.47;;
17598;SDS011;8918;52.092;5.232;2023-12-14T02:06:52;13.70;;;9.83;;
17598;SDS011;8918;52.092;5.232;2023-12-14T02:09:19;14.87;;;9.43;;
17598;SDS011;8918;52.092;5.232;2023-12-14T02:11:44;14.10;;;9.90;;
17598;SDS011;8918;52.092;5.232;2023-12-14T02:14:12;13.53;;;9.30;;
17598;SDS011;8918;52.092;5.232;2023-12-14T02:16:38;14.10;;;9.40;;
17598;SDS011;8918;52.092;5.232;2023-12-14T02:19:04;13.60;;;9.40;;
17598;SDS011;8918;52.092;5.232;2023-12-14T02:21:30;13.10;;;9.47;;
17598;SDS011;8918;52.092;5.232;2023-12-14T02:23:55;12.83;;;8.90;;
17598;SDS011;8918;52.092;5.232;2023-12-14T02:26:21;12.13;;;9.20;;
17598;SDS011;8918;52.092;5.232;2023-12-14T02:28:47;13.60;;;9.43;;
17598;SDS011;8918;52.092;5.232;2023-12-14T02:31:13;11.93;;;8.80;;
17598;SDS011;8918;52.092;5.232;2023-12-14T02:33:38;14.97;;;9.27;;
17598;SDS011;8918;52.092;5.232;2023-12-14T02:36:04;14.17;;;9.70;;
17598;SDS011;8918;52.092;5.232;2023-12-14T02:38:30;14.73;;;9.90;;
17598;SDS011;8918;52.092;5.232;2023-12-14T02:40:55;14.03;;;9.80;;
17598;SDS011;8918;52.092;5.232;2023-12-14T02:43:21;14.47;;;10.10;;
17598;SDS011;8918;52.092;5.232;2023-12-14T02:45:48;13.37;;;9.03;;
17598;SDS011;8918;52.092;5.232;2023-12-14T02:48:14;15.10;;;10.20;;
17598;SDS011;8918;52.092;5.232;2023-12-14T02:50:40;16.70;;;10.23;;
17598;SDS011;8918;52.092;5.232;2023-12-14T02:53:06;15.10;;;10.43;;
17598;SDS011;8918;52.092;5.232;2023-12-14T02:55:31;15.67;;;10.33;;
17598;SDS011;8918;52.092;5.232;2023-12-14T02:57:57;15.33;;;10.63;;
17598;SDS011;8918;52.092;5.232;2023-12-14T03:00:22;15.73;;;9.90;;
17598;SDS011;8918;52.092;5.232;2023-12-14T03:02:48;16.40;;;10.37;;
17598;SDS011;8918;52.092;5.232;2023-12-14T03:05:14;15.67;;;10.40;;
17598;SDS011;8918;52.092;5.232;2023-12-14T03:07:39;16.40;;;11.00;;
17598;SDS011;8918;52.092;5.232;2023-12-14T03:10:05;19.70;;;11.80;;
17598;SDS011;8918;52.092;5.232;2023-12-14T03:12:32;18.20;;;10.90;;
17598;SDS011;8918;52.092;5.232;2023-12-14T03:14:57;16.80;;;10.77;;
17598;SDS011;8918;52.092;5.232;2023-12-14T03:17:23;15.67;;;10.93;;
17598;SDS011;8918;52.092;5.232;2023-12-14T03:19:49;15.17;;;10.40;;
17598;SDS011;8918;52.092;5.232;2023-12-14T03:22:15;18.13;;;10.50;;
17598;SDS011;8918;52.092;5.232;2023-12-14T03:24:40;15.40;;;10.30;;
17598;SDS011;8918;52.092;5.232;2023-12-14T03:27:06;17.20;;;10.83;;
17598;SDS011;8918;52.092;5.232;2023-12-14T03:29:32;16.57;;;11.10;;
17598;SDS011;8918;52.092;5.232;2023-12-14T03:31:58;17.70;;;10.47;;
17598;SDS011;8918;52.092;5.232;2023-12-14T03:34:24;17.30;;;10.87;;
17598;SDS011;8918;52.092;5.232;2023-12-14T03:36:50;18.33;;;10.97;;
17598;SDS011;8918;52.092;5.232;2023-12-14T03:39:16;18.17;;;11.83;;
17598;SDS011;8918;52.092;5.232;2023-12-14T03:41:42;17.73;;;10.90;;
17598;SDS011;8918;52.092;5.232;2023-12-14T03:44:08;19.47;;;11.80;;
17598;SDS011;8918;52.092;5.232;2023-12-14T03:46:34;18.47;;;11.50;;
17598;SDS011;8918;52.092;5.232;2023-12-14T03:49:00;18.20;;;11.40;;
17598;SDS011;8918;52.092;5.232;2023-12-14T03:51:26;18.20;;;11.07;;
17598;SDS011;8918;52.092;5.232;2023-12-14T03:53:51;18.57;;;11.13;;
17598;SDS011;8918;52.092;5.232;2023-12-14T03:56:17;19.17;;;11.70;;
17598;SDS011;8918;52.092;5.232;2023-12-14T03:58:42;16.97;;;11.00;;
17598;SDS011;8918;52.092;5.232;2023-12-14T04:01:08;21.57;;;11.50;;
17598;SDS011;8918;52.092;5.232;2023-12-14T04:03:41;17.27;;;10.83;;
17598;SDS011;8918;52.092;5.232;2023-12-14T04:06:07;19.07;;;10.80;;
17598;SDS011;8918;52.092;5.232;2023-12-14T04:08:32;18.30;;;10.00;;
17598;SDS011;8918;52.092;5.232;2023-12-14T04:10:58;16.53;;;10.00;;
17598;SDS011;8918;52.092;5.232;2023-12-14T04:13:24;15.60;;;10.17;;
17598;SDS011;8918;52.092;5.232;2023-12-14T04:15:49;19.80;;;10.40;;
17598;SDS011;8918;52.092;5.232;2023-12-14T04:18:15;14.17;;;9.40;;
17598;SDS011;8918;52.092;5.232;2023-12-14T04:20:40;17.50;;;9.70;;
17598;SDS011;8918;52.092;5.232;2023-12-14T04:23:06;16.33;;;9.20;;
17598;SDS011;8918;52.092;5.232;2023-12-14T04:25:32;14.20;;;8.60;;
17598;SDS011;8918;52.092;5.232;2023-12-14T04:27:57;16.93;;;8.90;;
17598;SDS011;8918;52.092;5.232;2023-12-14T04:30:23;12.87;;;8.70;;
17598;SDS011;8918;52.092;5.232;2023-12-14T04:32:48;13.70;;;8.30;;
17598;SDS011;8918;52.092;5.232;2023-12-14T04:35:14;13.77;;;8.33;;
17598;SDS011;8918;52.092;5.232;2023-12-14T04:37:39;16.20;;;8.53;;
17598;SDS011;8918;52.092;5.232;2023-12-14T04:40:05;12.30;;;7.67;;
17598;SDS011;8918;52.092;5.232;2023-12-14T04:42:31;17.83;;;8.97;;
17598;SDS011;8918;52.092;5.232;2023-12-14T04:44:57;14.13;;;8.00;;
17598;SDS011;8918;52.092;5.232;2023-12-14T04:47:22;13.57;;;7.67;;
17598;SDS011;8918;52.092;5.232;2023-12-14T04:49:49;12.63;;;7.83;;
17598;SDS011;8918;52.092;5.232;2023-12-14T04:52:14;13.50;;;8.07;;
17598;SDS011;8918;52.092;5.232;2023-12-14T04:54:40;14.70;;;7.87;;
17598;SDS011;8918;52.092;5.232;2023-12-14T04:57:07;13.77;;;7.47;;
17598;SDS011;8918;52.092;5.232;2023-12-14T04:59:32;14.00;;;7.47;;
17598;SDS011;8918;52.092;5.232;2023-12-14T05:01:58;15.80;;;7.87;;
17598;SDS011;8918;52.092;5.232;2023-12-14T05:04:23;14.40;;;7.63;;
17598;SDS011;8918;52.092;5.232;2023-12-14T05:06:49;13.63;;;7.80;;
17598;SDS011;8918;52.092;5.232;2023-12-14T05:09:15;10.77;;;6.67;;
17598;SDS011;8918;52.092;5.232;2023-12-14T05:11:40;12.00;;;6.90;;
17598;SDS011;8918;52.092;5.232;2023-12-14T05:14:07;13.27;;;7.40;;
17598;SDS011;8918;52.092;5.232;2023-12-14T05:16:33;12.50;;;7.30;;
17598;SDS011;8918;52.092;5.232;2023-12-14T05:18:58;12.60;;;7.00;;
17598;SDS011;8918;52.092;5.232;2023-12-14T05:21:24;12.03;;;7.30;;
17598;SDS011;8918;52.092;5.232;2023-12-14T05:23:50;11.07;;;6.73;;
17598;SDS011;8918;52.092;5.232;2023-12-14T05:26:15;11.60;;;6.33;;
17598;SDS011;8918;52.092;5.232;2023-12-14T05:28:41;11.70;;;6.37;;
17598;SDS011;8918;52.092;5.232;2023-12-14T05:31:07;9.37;;;6.20;;
17598;SDS011;8918;52.092;5.232;2023-12-14T05:33:36;10.77;;;6.10;;
17598;SDS011;8918;52.092;5.232;2023-12-14T05:36:02;9.70;;;6.40;;
17598;SDS011;8918;52.092;5.232;2023-12-14T05:38:30;10.03;;;6.23;;
17598;SDS011;8918;52.092;5.232;2023-12-14T05:40:56;10.27;;;6.10;;
17598;SDS011;8918;52.092;5.232;2023-12-14T05:43:21;10.17;;;6.33;;
17598;SDS011;8918;52.092;5.232;2023-12-14T05:45:47;8.40;;;6.07;;
17598;SDS011;8918;52.092;5.232;2023-12-14T05:48:13;8.63;;;5.57;;
17598;SDS011;8918;52.092;5.232;2023-12-14T05:50:38;9.17;;;5.73;;
17598;SDS011;8918;52.092;5.232;2023-12-14T05:53:04;8.23;;;5.33;;
17598;SDS011;8918;52.092;5.232;2023-12-14T05:55:30;8.17;;;5.60;;
17598;SDS011;8918;52.092;5.232;2023-12-14T05:57:55;12.87;;;5.93;;
17598;SDS011;8918;52.092;5.232;2023-12-14T06:00:24;8.50;;;5.63;;
17598;SDS011;8918;52.092;5.232;2023-12-14T06:02:49;8.47;;;5.97;;
17598;SDS011;8918;52.092;5.232;2023-12-14T06:05:15;8.77;;;5.53;;
17598;SDS011;8918;52.092;5.232;2023-12-14T06:07:40;8.93;;;5.73;;
17598;SDS011;8918;52.092;5.232;2023-12-14T06:10:06;8.90;;;5.80;;
17598;SDS011;8918;52.092;5.232;2023-12-14T06:12:32;8.40;;;5.63;;
17598;SDS011;8918;52.092;5.232;2023-12-14T06:14:58;9.60;;;5.90;;
17598;SDS011;8918;52.092;5.232;2023-12-14T06:17:23;8.80;;;5.77;;
17598;SDS011;8918;52.092;5.232;2023-12-14T06:19:49;8.03;;;5.73;;
17598;SDS011;8918;52.092;5.232;2023-12-14T06:22:14;8.73;;;5.70;;
17598;SDS011;8918;52.092;5.232;2023-12-14T06:24:40;9.33;;;5.87;;
17598;SDS011;8918;52.092;5.232;2023-12-14T06:27:05;8.40;;;5.77;;
17598;SDS011;8918;52.092;5.232;2023-12-14T06:29:32;7.80;;;5.30;;
17598;SDS011;8918;52.092;5.232;2023-12-14T06:31:58;7.87;;;5.57;;
17598;SDS011;8918;52.092;5.232;2023-12-14T06:34:23;9.40;;;5.53;;
17598;SDS011;8918;52.092;5.232;2023-12-14T06:36:49;8.47;;;4.97;;
17598;SDS011;8918;52.092;5.232;2023-12-14T06:39:14;7.00;;;5.00;;
17598;SDS011;8918;52.092;5.232;2023-12-14T06:41:41;6.93;;;5.03;;
17598;SDS011;8918;52.092;5.232;2023-12-14T06:44:06;8.07;;;5.70;;
17598;SDS011;8918;52.092;5.232;2023-12-14T06:46:34;8.07;;;5.87;;
17598;SDS011;8918;52.092;5.232;2023-12-14T06:48:59;9.47;;;6.07;;
17598;SDS011;8918;52.092;5.232;2023-12-14T06:51:25;7.60;;;5.30;;
17598;SDS011;8918;52.092;5.232;2023-12-14T06:53:51;8.00;;;6.00;;
17598;SDS011;8918;52.092;5.232;2023-12-14T06:56:16;7.57;;;5.10;;
17598;SDS011;8918;52.092;5.232;2023-12-14T06:58:43;9.33;;;6.10;;
17598;SDS011;8918;52.092;5.232;2023-12-14T07:01:13;9.63;;;6.10;;
17598;SDS011;8918;52.092;5.232;2023-12-14T07:03:45;9.43;;;6.60;;
17598;SDS011;8918;52.092;5.232;2023-12-14T07:06:14;10.83;;;6.50;;
17598;SDS011;8918;52.092;5.232;2023-12-14T07:08:41;10.13;;;7.10;;
17598;SDS011;8918;52.092;5.232;2023-12-14T07:11:07;7.67;;;5.80;;
17598;SDS011;8918;52.092;5.232;2023-12-14T07:13:33;9.27;;;6.60;;
17598;SDS011;8918;52.092;5.232;2023-12-14T07:16:01;9.77;;;6.43;;
17598;SDS011;8918;52.092;5.232;2023-12-14T07:18:30;10.20;;;6.33;;
17598;SDS011;8918;52.092;5.232;2023-12-14T07:20:55;10.20;;;5.90;;
17598;SDS011;8918;52.092;5.232;2023-12-14T07:23:21;8.77;;;6.07;;
17598;SDS011;8918;52.092;5.232;2023-12-14T07:25:47;9.73;;;6.50;;
17598;SDS011;8918;52.092;5.232;2023-12-14T07:28:12;9.83;;;6.30;;
17598;SDS011;8918;52.092;5.232;2023-12-14T07:30:38;8.73;;;6.00;;
17598;SDS011;8918;52.092;5.232;2023-12-14T07:33:03;8.17;;;5.90;;
17598;SDS011;8918;52.092;5.232;2023-12-14T07:35:29;9.87;;;6.30;;
17598;SDS011;8918;52.092;5.232;2023-12-14T07:37:55;9.20;;;6.30;;
17598;SDS011;8918;52.092;5.232;2023-12-14T07:40:20;10.23;;;7.30;;
17598;SDS011;8918;52.092;5.232;2023-12-14T07:42:46;10.20;;;7.13;;
17598;SDS011;8918;52.092;5.232;2023-12-14T07:45:12;10.47;;;6.60;;
17598;SDS011;8918;52.092;5.232;2023-12-14T07:47:37;10.13;;;6.30;;
17598;SDS011;8918;52.092;5.232;2023-12-14T07:50:03;9.73;;;6.53;;
17598;SDS011;8918;52.092;5.232;2023-12-14T07:52:29;8.27;;;6.20;;
17598;SDS011;8918;52.092;5.232;2023-12-14T07:54:54;8.80;;;6.17;;
17598;SDS011;8918;52.092;5.232;2023-12-14T07:57:20;9.43;;;6.53;;
17598;SDS011;8918;52.092;5.232;2023-12-14T07:59:45;9.17;;;6.43;;
17598;SDS011;8918;52.092;5.232;2023-12-14T08:02:11;9.33;;;6.17;;
17598;SDS011;8918;52.092;5.232;2023-12-14T08:04:37;8.63;;;6.13;;
17598;SDS011;8918;52.092;5.232;2023-12-14T08:07:03;10.20;;;6.50;;
17598;SDS011;8918;52.092;5.232;2023-12-14T08:09:28;10.57;;;6.77;;
17598;SDS011;8918;52.092;5.232;2023-12-14T08:11:54;8.27;;;5.80;;
17598;SDS011;8918;52.092;5.232;2023-12-14T08:14:19;10.57;;;6.70;;
17598;SDS011;8918;52.092;5.232;2023-12-14T08:16:45;9.10;;;6.20;;
17598;SDS011;8918;52.092;5.232;2023-12-14T08:19:11;12.70;;;6.87;;
17598;SDS011;8918;52.092;5.232;2023-12-14T08:21:36;7.83;;;6.23;;
17598;SDS011;8918;52.092;5.232;2023-12-14T08:24:02;10.37;;;6.57;;
17598;SDS011;8918;52.092;5.232;2023-12-14T08:26:27;9.87;;;6.10;;
17598;SDS011;8918;52.092;5.232;2023-12-14T08:28:53;8.80;;;6.73;;
17598;SDS011;8918;52.092;5.232;2023-12-14T08:31:19;10.57;;;6.90;;
17598;SDS011;8918;52.092;5.232;2023-12-14T08:33:44;9.90;;;6.87;;
17598;SDS011;8918;52.092;5.232;2023-12-14T08:36:10;11.17;;;6.80;;
17598;SDS011;8918;52.092;5.232;2023-12-14T08:38:39;11.43;;;6.77;;
17598;SDS011;8918;52.092;5.232;2023-12-14T08:41:05;10.00;;;6.63;;
17598;SDS011;8918;52.092;5.232;2023-12-14T08:43:31;9.13;;;6.30;;
17598;SDS011;8918;52.092;5.232;2023-12-14T08:45:56;7.93;;;6.10;;
17598;SDS011;8918;52.092;5.232;2023-12-14T08:48:22;9.87;;;6.60;;
17598;SDS011;8918;52.092;5.232;2023-12-14T08:50:47;8.77;;;5.93;;
17598;SDS011;8918;52.092;5.232;2023-12-14T08:53:13;10.60;;;6.20;;
17598;SDS011;8918;52.092;5.232;2023-12-14T08:55:39;9.87;;;6.23;;
17598;SDS011;8918;52.092;5.232;2023-12-14T08:58:04;10.67;;;6.60;;
17598;SDS011;8918;52.092;5.232;2023-12-14T09:00:30;8.43;;;6.10;;
17598;SDS011;8918;52.092;5.232;2023-12-14T09:02:55;9.77;;;6.53;;
17598;SDS011;8918;52.092;5.232;2023-12-14T09:05:21;10.20;;;6.93;;
17598;SDS011;8918;52.092;5.232;2023-12-14T09:07:47;9.23;;;6.47;;
17598;SDS011;8918;52.092;5.232;2023-12-14T09:10:12;9.70;;;6.23;;
17598;SDS011;8918;52.092;5.232;2023-12-14T09:12:38;8.20;;;6.37;;
17598;SDS011;8918;52.092;5.232;2023-12-14T09:15:04;10.37;;;6.37;;
17598;SDS011;8918;52.092;5.232;2023-12-14T09:17:31;8.47;;;6.60;;
17598;SDS011;8918;52.092;5.232;2023-12-14T09:20:00;8.10;;;6.30;;
17598;SDS011;8918;52.092;5.232;2023-12-14T09:22:26;8.90;;;6.20;;
17598;SDS011;8918;52.092;5.232;2023-12-14T09:24:52;8.63;;;6.30;;
17598;SDS011;8918;52.092;5.232;2023-12-14T09:27:17;7.83;;;6.03;;
17598;SDS011;8918;52.092;5.232;2023-12-14T09:29:43;9.00;;;6.60;;
17598;SDS011;8918;52.092;5.232;2023-12-14T09:32:09;9.37;;;6.37;;
17598;SDS011;8918;52.092;5.232;2023-12-14T09:34:34;8.90;;;5.83;;
17598;SDS011;8918;52.092;5.232;2023-12-14T09:37:00;10.50;;;6.13;;
17598;SDS011;8918;52.092;5.232;2023-12-14T09:39:26;8.60;;;5.80;;
17598;SDS011;8918;52.092;5.232;2023-12-14T09:41:53;7.63;;;5.37;;
17598;SDS011;8918;52.092;5.232;2023-12-14T09:44:28;8.97;;;5.77;;
17598;SDS011;8918;52.092;5.232;2023-12-14T09:46:54;6.67;;;5.80;;
17598;SDS011;8918;52.092;5.232;2023-12-14T09:49:22;6.70;;;4.93;;
17598;SDS011;8918;52.092;5.232;2023-12-14T09:51:49;7.33;;;4.90;;
17598;SDS011;8918;52.092;5.232;2023-12-14T09:54:15;8.43;;;4.90;;
17598;SDS011;8918;52.092;5.232;2023-12-14T09:56:47;6.03;;;4.60;;
17598;SDS011;8918;52.092;5.232;2023-12-14T09:59:13;7.63;;;4.77;;
17598;SDS011;8918;52.092;5.232;2023-12-14T10:01:38;8.37;;;4.50;;
17598;SDS011;8918;52.092;5.232;2023-12-14T10:04:08;6.37;;;4.60;;
17598;SDS011;8918;52.092;5.232;2023-12-14T10:06:35;7.30;;;4.50;;
17598;SDS011;8918;52.092;5.232;2023-12-14T10:09:02;5.70;;;4.30;;
17598;SDS011;8918;52.092;5.232;2023-12-14T10:11:28;5.87;;;4.10;;
17598;SDS011;8918;52.092;5.232;2023-12-14T10:13:54;5.40;;;3.70;;
17598;SDS011;8918;52.092;5.232;2023-12-14T10:16:27;5.87;;;3.97;;
17598;SDS011;8918;52.092;5.232;2023-12-14T10:18:57;5.50;;;3.80;;
17598;SDS011;8918;52.092;5.232;2023-12-14T10:21:24;6.67;;;4.00;;
17598;SDS011;8918;52.092;5.232;2023-12-14T10:23:56;7.00;;;4.20;;
17598;SDS011;8918;52.092;5.232;2023-12-14T10:26:22;4.70;;;3.80;;
17598;SDS011;8918;52.092;5.232;2023-12-14T10:28:52;4.70;;;4.00;;
17598;SDS011;8918;52.092;5.232;2023-12-14T10:31:18;6.90;;;4.10;;
17598;SDS011;8918;52.092;5.232;2023-12-14T10:33:47;5.17;;;4.13;;
17598;SDS011;8918;52.092;5.232;2023-12-14T10:36:13;6.70;;;4.47;;
17598;SDS011;8918;52.092;5.232;2023-12-14T10:38:40;8.17;;;4.77;;
17598;SDS011;8918;52.092;5.232;2023-12-14T10:41:08;7.50;;;4.40;;
17598;SDS011;8918;52.092;5.232;2023-12-14T10:43:35;7.33;;;4.77;;
17598;SDS011;8918;52.092;5.232;2023-12-14T10:46:01;5.93;;;4.43;;
17598;SDS011;8918;52.092;5.232;2023-12-14T10:48:31;6.67;;;4.27;;
17598;SDS011;8918;52.092;5.232;2023-12-14T10:50:57;6.10;;;4.37;;
17598;SDS011;8918;52.092;5.232;2023-12-14T10:53:26;5.57;;;4.30;;
17598;SDS011;8918;52.092;5.232;2023-12-14T10:55:52;5.43;;;4.60;;
17598;SDS011;8918;52.092;5.232;2023-12-14T10:58:20;5.37;;;4.50;;
17598;SDS011;8918;52.092;5.232;2023-12-14T11:00:57;6.67;;;4.00;;
17598;SDS011;8918;52.092;5.232;2023-12-14T11:03:31;5.80;;;4.10;;
17598;SDS011;8918;52.092;5.232;2023-12-14T11:05:59;5.80;;;4.20;;
17598;SDS011;8918;52.092;5.232;2023-12-14T11:08:25;6.03;;;4.17;;
17598;SDS011;8918;52.092;5.232;2023-12-14T11:10:54;8.60;;;3.80;;
17598;SDS011;8918;52.092;5.232;2023-12-14T11:13:35;5.57;;;4.10;;
17598;SDS011;8918;52.092;5.232;2023-12-14T11:16:01;5.20;;;3.90;;
17598;SDS011;8918;52.092;5.232;2023-12-14T11:18:27;5.37;;;3.50;;
17598;SDS011;8918;52.092;5.232;2023-12-14T11:20:59;4.83;;;3.60;;
17598;SDS011;8918;52.092;5.232;2023-12-14T11:23:27;5.30;;;3.73;;
17598;SDS011;8918;52.092;5.232;2023-12-14T11:25:59;4.10;;;3.50;;
17598;SDS011;8918;52.092;5.232;2023-12-14T11:28:28;4.40;;;3.50;;
17598;SDS011;8918;52.092;5.232;2023-12-14T11:30:55;6.83;;;3.47;;
17598;SDS011;8918;52.092;5.232;2023-12-14T11:33:21;4.53;;;3.60;;
17598;SDS011;8918;52.092;5.232;2023-12-14T11:35:47;5.80;;;3.70;;
17598;SDS011;8918;52.092;5.232;2023-12-14T11:38:12;6.33;;;3.90;;
17598;SDS011;8918;52.092;5.232;2023-12-14T11:40:41;4.93;;;3.70;;
17598;SDS011;8918;52.092;5.232;2023-12-14T11:43:07;4.03;;;3.63;;
17598;SDS011;8918;52.092;5.232;2023-12-14T11:45:39;4.57;;;3.77;;
17598;SDS011;8918;52.092;5.232;2023-12-14T11:48:07;5.87;;;3.50;;
17598;SDS011;8918;52.092;5.232;2023-12-14T11:50:35;5.10;;;3.77;;
17598;SDS011;8918;52.092;5.232;2023-12-14T11:53:01;5.23;;;3.43;;
17598;SDS011;8918;52.092;5.232;2023-12-14T11:55:31;5.67;;;4.07;;
17598;SDS011;8918;52.092;5.232;2023-12-14T11:57:58;5.83;;;3.70;;
17598;SDS011;8918;52.092;5.232;2023-12-14T12:00:27;7.07;;;3.63;;
17598;SDS011;8918;52.092;5.232;2023-12-14T12:05:42;5.30;;;3.90;;
17598;SDS011;8918;52.092;5.232;2023-12-14T12:08:09;5.03;;;3.80;;
17598;SDS011;8918;52.092;5.232;2023-12-14T12:10:36;5.33;;;4.00;;
17598;SDS011;8918;52.092;5.232;2023-12-14T12:13:03;5.20;;;3.87;;
17598;SDS011;8918;52.092;5.232;2023-12-14T12:15:33;4.43;;;3.63;;
17598;SDS011;8918;52.092;5.232;2023-12-14T12:18:03;8.53;;;4.27;;
17598;SDS011;8918;52.092;5.232;2023-12-14T12:20:33;5.67;;;4.10;;
17598;SDS011;8918;52.092;5.232;2023-12-14T12:22:59;7.77;;;4.60;;
17598;SDS011;8918;52.092;5.232;2023-12-14T12:25:26;7.37;;;4.10;;
17598;SDS011;8918;52.092;5.232;2023-12-14T12:27:53;6.90;;;4.00;;
17598;SDS011;8918;52.092;5.232;2023-12-14T12:30:20;6.80;;;4.23;;
17598;SDS011;8918;52.092;5.232;2023-12-14T12:32:47;5.53;;;4.53;;
17598;SDS011;8918;52.092;5.232;2023-12-14T12:35:12;6.67;;;4.20;;
17598;SDS011;8918;52.092;5.232;2023-12-14T12:37:38;5.93;;;4.30;;
17598;SDS011;8918;52.092;5.232;2023-12-14T12:40:04;9.60;;;5.20;;
17598;SDS011;8918;52.092;5.232;2023-12-14T12:42:31;9.13;;;4.60;;
17598;SDS011;8918;52.092;5.232;2023-12-14T12:44:57;6.73;;;4.57;;
17598;SDS011;8918;52.092;5.232;2023-12-14T12:47:23;5.20;;;4.10;;
17598;SDS011;8918;52.092;5.232;2023-12-14T12:49:48;6.93;;;4.60;;
17598;SDS011;8918;52.092;5.232;2023-12-14T12:52:14;5.90;;;4.57;;
17598;SDS011;8918;52.092;5.232;2023-12-14T12:54:40;7.33;;;4.50;;
17598;SDS011;8918;52.092;5.232;2023-12-14T12:57:05;7.90;;;4.80;;
17598;SDS011;8918;52.092;5.232;2023-12-14T12:59:31;7.27;;;4.93;;
17598;SDS011;8918;52.092;5.232;2023-12-14T13:01:57;8.17;;;4.87;;
17598;SDS011;8918;52.092;5.232;2023-12-14T13:04:23;8.10;;;4.30;;
17598;SDS011;8918;52.092;5.232;2023-12-14T13:06:49;7.10;;;5.10;;
17598;SDS011;8918;52.092;5.232;2023-12-14T13:09:15;7.47;;;4.90;;
17598;SDS011;8918;52.092;5.232;2023-12-14T13:11:45;6.37;;;4.67;;
17598;SDS011;8918;52.092;5.232;2023-12-14T13:14:11;9.20;;;5.60;;
17598;SDS011;8918;52.092;5.232;2023-12-14T13:16:37;9.90;;;5.40;;
17598;SDS011;8918;52.092;5.232;2023-12-14T13:19:03;7.63;;;5.03;;
17598;SDS011;8918;52.092;5.232;2023-12-14T13:21:31;8.47;;;5.57;;
17598;SDS011;8918;52.092;5.232;2023-12-14T13:24:00;9.20;;;5.40;;
17598;SDS011;8918;52.092;5.232;2023-12-14T13:26:26;9.50;;;6.20;;
17598;SDS011;8918;52.092;5.232;2023-12-14T13:28:52;8.37;;;5.80;;
17598;SDS011;8918;52.092;5.232;2023-12-14T13:31:18;10.03;;;6.27;;
17598;SDS011;8918;52.092;5.232;2023-12-14T13:33:45;8.00;;;5.83;;
17598;SDS011;8918;52.092;5.232;2023-12-14T13:36:11;8.73;;;6.10;;
17598;SDS011;8918;52.092;5.232;2023-12-14T13:38:38;8.30;;;6.30;;
17598;SDS011;8918;52.092;5.232;2023-12-14T13:41:03;10.90;;;6.83;;
17598;SDS011;8918;52.092;5.232;2023-12-14T13:43:29;9.63;;;5.90;;
17598;SDS011;8918;52.092;5.232;2023-12-14T13:45:55;10.10;;;6.53;;
17598;SDS011;8918;52.092;5.232;2023-12-14T13:48:24;9.83;;;6.57;;
17598;SDS011;8918;52.092;5.232;2023-12-14T13:50:53;9.30;;;6.20;;
17598;SDS011;8918;52.092;5.232;2023-12-14T13:53:20;9.07;;;6.23;;
17598;SDS011;8918;52.092;5.232;2023-12-14T13:55:46;10.13;;;7.03;;
17598;SDS011;8918;52.092;5.232;2023-12-14T13:58:12;9.87;;;6.90;;
17598;SDS011;8918;52.092;5.232;2023-12-14T14:00:38;8.43;;;6.53;;
17598;SDS011;8918;52.092;5.232;2023-12-14T14:03:03;9.87;;;7.07;;
17598;SDS011;8918;52.092;5.232;2023-12-14T14:05:30;9.00;;;6.83;;
17598;SDS011;8918;52.092;5.232;2023-12-14T14:07:56;11.17;;;6.87;;
17598;SDS011;8918;52.092;5.232;2023-12-14T14:10:22;11.67;;;7.27;;
17598;SDS011;8918;52.092;5.232;2023-12-14T14:12:48;11.33;;;7.23;;
17598;SDS011;8918;52.092;5.232;2023-12-14T14:15:14;11.43;;;7.43;;
17598;SDS011;8918;52.092;5.232;2023-12-14T14:17:39;9.97;;;7.10;;
17598;SDS011;8918;52.092;5.232;2023-12-14T14:20:05;9.50;;;7.07;;
17598;SDS011;8918;52.092;5.232;2023-12-14T14:22:32;10.50;;;7.47;;
17598;SDS011;8918;52.092;5.232;2023-12-14T14:24:58;10.63;;;7.37;;
17598;SDS011;8918;52.092;5.232;2023-12-14T14:27:24;9.37;;;7.30;;
17598;SDS011;8918;52.092;5.232;2023-12-14T14:29:50;10.30;;;7.17;;
17598;SDS011;8918;52.092;5.232;2023-12-14T14:32:19;10.70;;;6.53;;
17598;SDS011;8918;52.092;5.232;2023-12-14T14:34:44;9.17;;;6.77;;
17598;SDS011;8918;52.092;5.232;2023-12-14T14:37:10;10.83;;;6.97;;
17598;SDS011;8918;52.092;5.232;2023-12-14T14:39:35;10.70;;;6.87;;
17598;SDS011;8918;52.092;5.232;2023-12-14T14:42:04;10.87;;;6.70;;
17598;SDS011;8918;52.092;5.232;2023-12-14T14:44:30;11.07;;;6.57;;
17598;SDS011;8918;52.092;5.232;2023-12-14T14:46:59;11.37;;;6.80;;
17598;SDS011;8918;52.092;5.232;2023-12-14T14:49:24;9.67;;;6.57;;